PTJ weather

Portland Airport
Victoria, Australia

Public forecast

Using degrees Celsius for public forecast. Weather courtesy of forecast.io.

Closest aviation weather report (METAR) to Portland Airport

Closest report is Mount Gambier Airport, 47.3 nm (87.5 km) NW. Retrieved 2020/07/04 01:00 UTC (22 minutes ago):

YMTG 040100Z AUTO 22014KT 9999 // SCT020 SCT024 12/10 Q1027

Closest aviation forecast (TAF) to Portland Airport

Forecast is more than 12 hours old.

Closest forecast is Avalon Airport, 142.5 nm (263.9 km) E. Retrieved 2020-07-03 00:00 UTC (1 day ago):

TAF YMAV 022342Z 0300/0400 32010KT 9999 FEW030 FM030100 25012KT 9999 -SHRA BKN030 BECMG 0306/0308 26010KT 9999 NSW SCT040 BECMG 0320/0322 28010KT 9999 -DZ SCT015 BKN020 INTER 0301/0306 4000 SHRA BKN012 TEMPO 0322/0400 3000 DZ BKN010